Time;durP1;ratioP1;P1;durP2;ratioP2;P2;SDS_P1;SDS_P2;PMS_P1;PMS_P2;Temp;Humidity;BMP_temperature;BMP_pressure;BME280_temperature;BME280_humidity;BME280_pressure;Samples;Min_cycle;Max_cycle;Signal;HPM_P1;HPM_P2
2024/01/03 00:02:21;;;;;;;1.75;0.15;;;;;;;;;;5051865;28;20499;-79
2024/01/03 00:04:46;;;;;;;0.15;0.13;;;;;;;;;;5043069;28;20032;-79
2024/01/03 00:07:12;;;;;;;1.40;0.20;;;;;;;;;;5042401;28;20067;-80
2024/01/03 00:09:37;;;;;;;0.90;0.20;;;;;;;;;;5053277;28;20507;-79
2024/01/03 00:12:03;;;;;;;0.10;0.10;;;;;;;;;;5052597;28;20494;-80
2024/01/03 00:14:32;;;;;;;0.17;0.17;;;;;;;;;;5051372;28;20032;-81
2024/01/03 00:17:04;;;;;;;2.83;0.20;;;;;;;;;;5056124;28;20025;-80
2024/01/03 00:19:30;;;;;;;0.25;0.20;;;;;;;;;;5059909;28;20377;-80
2024/01/03 00:21:56;;;;;;;0.05;0.05;;;;;;;;;;5054341;28;20056;-79
2024/01/03 00:24:21;;;;;;;0.10;0.10;;;;;;;;;;5056506;28;20400;-80
2024/01/03 00:26:47;;;;;;;0.20;0.15;;;;;;;;;;5060168;28;20068;-80
2024/01/03 00:29:52;;;;;;;0.17;0.10;;;;;;;;;;5041610;28;20029;-80
2024/01/03 00:32:18;;;;;;;0.10;0.10;;;;;;;;;;5051472;28;20028;-79
2024/01/03 00:34:44;;;;;;;0.47;0.30;;;;;;;;;;5062425;28;20059;-80
2024/01/03 00:37:24;;;;;;;0.00;0.00;;;;;;;;;;5062756;28;20029;-79
2024/01/03 00:39:50;;;;;;;0.17;0.17;;;;;;;;;;5041561;28;20369;-79
2024/01/03 00:42:16;;;;;;;0.10;0.10;;;;;;;;;;5055785;28;20032;-81
2024/01/03 00:44:41;;;;;;;0.10;0.10;;;;;;;;;;5053403;28;20522;-81
2024/01/03 00:47:07;;;;;;;0.20;0.20;;;;;;;;;;5033634;28;20033;-80
2024/01/03 00:49:33;;;;;;;0.10;0.10;;;;;;;;;;5052367;28;20029;-78
2024/01/03 00:52:00;;;;;;;0.10;0.10;;;;;;;;;;5030619;28;20064;-80
2024/01/03 00:54:26;;;;;;;0.20;0.20;;;;;;;;;;5033582;28;20021;-81
2024/01/03 00:56:52;;;;;;;0.22;0.10;;;;;;;;;;5034969;28;20032;-80
2024/01/03 00:59:18;;;;;;;0.20;0.10;;;;;;;;;;5048731;28;20289;-80
2024/01/03 01:01:44;;;;;;;0.35;0.30;;;;;;;;;;5033050;28;20052;-80
2024/01/03 01:04:10;;;;;;;0.20;0.20;;;;;;;;;;5054032;28;20037;-80
2024/01/03 01:06:36;;;;;;;0.75;0.20;;;;;;;;;;5052577;28;20032;-80
2024/01/03 01:09:04;;;;;;;0.10;0.10;;;;;;;;;;5034931;28;20013;-81
2024/01/03 01:11:29;;;;;;;0.20;0.20;;;;;;;;;;5036307;28;20502;-81
2024/01/03 01:13:55;;;;;;;0.57;0.20;;;;;;;;;;5052628;28;20053;-80
2024/01/03 01:16:20;;;;;;;0.52;0.32;;;;;;;;;;5039287;28;20021;-81
2024/01/03 01:18:46;;;;;;;0.35;0.30;;;;;;;;;;5038909;28;20052;-80
2024/01/03 01:21:11;;;;;;;1.20;0.22;;;;;;;;;;5051303;28;20500;-81
2024/01/03 01:23:41;;;;;;;0.10;0.10;;;;;;;;;;5055518;28;20479;-81
2024/01/03 01:26:07;;;;;;;0.90;0.20;;;;;;;;;;5054296;28;20025;-81
2024/01/03 01:28:32;;;;;;;0.10;0.10;;;;;;;;;;5054690;28;20093;-80
2024/01/03 01:30:57;;;;;;;0.10;0.10;;;;;;;;;;5043042;28;20024;-81
2024/01/03 01:33:23;;;;;;;1.25;0.25;;;;;;;;;;5051093;28;20250;-81
2024/01/03 01:35:48;;;;;;;0.25;0.22;;;;;;;;;;5034718;28;20032;-81
2024/01/03 01:38:13;;;;;;;2.28;0.25;;;;;;;;;;5053167;28;20086;-81
2024/01/03 01:40:38;;;;;;;0.10;0.10;;;;;;;;;;5046351;28;20143;-80
2024/01/03 01:43:03;;;;;;;0.47;0.10;;;;;;;;;;5058381;28;20258;-79
2024/01/03 01:45:29;;;;;;;0.67;0.23;;;;;;;;;;5056248;28;20323;-79
2024/01/03 01:47:54;;;;;;;0.70;0.20;;;;;;;;;;5058580;28;20282;-79
2024/01/03 01:50:19;;;;;;;0.93;0.13;;;;;;;;;;5052197;28;20262;-80
2024/01/03 01:52:45;;;;;;;0.15;0.10;;;;;;;;;;5052917;28;20025;-80
2024/01/03 01:55:11;;;;;;;0.40;0.30;;;;;;;;;;5036944;28;20021;-80
2024/01/03 01:57:39;;;;;;;0.20;0.20;;;;;;;;;;5040259;28;20040;-80
2024/01/03 02:00:07;;;;;;;0.70;0.20;;;;;;;;;;5050199;28;20480;-79
2024/01/03 02:02:33;;;;;;;0.20;0.20;;;;;;;;;;5050856;28;20044;-80
2024/01/03 02:04:59;;;;;;;0.32;0.10;;;;;;;;;;5049470;28;20005;-80
2024/01/03 02:07:25;;;;;;;0.20;0.20;;;;;;;;;;5071892;28;20005;-80
2024/01/03 02:09:52;;;;;;;0.30;0.20;;;;;;;;;;5057901;28;20029;-80
2024/01/03 02:12:25;;;;;;;0.40;0.30;;;;;;;;;;5058043;28;20021;-80
2024/01/03 02:14:50;;;;;;;0.30;0.30;;;;;;;;;;5051601;28;20080;-80
2024/01/03 02:17:16;;;;;;;0.27;0.17;;;;;;;;;;5056411;28;20053;-81
2024/01/03 02:19:41;;;;;;;0.17;0.17;;;;;;;;;;5035105;28;20385;-80
2024/01/03 02:22:06;;;;;;;0.10;0.10;;;;;;;;;;5036963;28;20031;-80
2024/01/03 02:24:31;;;;;;;0.13;0.13;;;;;;;;;;5052881;28;20040;-80
2024/01/03 02:26:57;;;;;;;0.30;0.20;;;;;;;;;;5052251;28;20249;-81
2024/01/03 02:29:22;;;;;;;0.10;0.10;;;;;;;;;;5055034;28;20288;-80
2024/01/03 02:31:47;;;;;;;0.20;0.20;;;;;;;;;;5051905;28;20267;-81
2024/01/03 02:34:12;;;;;;;0.40;0.20;;;;;;;;;;5056819;28;20061;-81
2024/01/03 02:36:38;;;;;;;0.50;0.20;;;;;;;;;;5055210;28;20273;-80
2024/01/03 02:39:04;;;;;;;0.17;0.17;;;;;;;;;;5058428;28;20266;-80
2024/01/03 02:41:29;;;;;;;0.20;0.20;;;;;;;;;;5061054;28;20094;-80
2024/01/03 02:43:54;;;;;;;0.05;0.05;;;;;;;;;;5057381;28;20055;-81
2024/01/03 02:46:19;;;;;;;0.63;0.20;;;;;;;;;;5049789;28;20029;-81
2024/01/03 02:48:45;;;;;;;0.20;0.20;;;;;;;;;;5061311;28;20031;-81
2024/01/03 02:51:22;;;;;;;0.30;0.25;;;;;;;;;;5061284;28;20757;-81
2024/01/03 02:53:48;;;;;;;1.38;0.30;;;;;;;;;;5047655;28;20033;-81
2024/01/03 02:56:14;;;;;;;0.30;0.10;;;;;;;;;;5049382;28;20048;-81
2024/01/03 02:58:39;;;;;;;0.43;0.40;;;;;;;;;;5061729;28;20021;-81
2024/01/03 03:01:05;;;;;;;0.55;0.38;;;;;;;;;;5058639;28;20025;-81
2024/01/03 03:03:30;;;;;;;0.20;0.20;;;;;;;;;;5040776;28;20029;-80
2024/01/03 03:05:56;;;;;;;0.40;0.30;;;;;;;;;;5060160;28;20549;-79
2024/01/03 03:08:22;;;;;;;0.45;0.20;;;;;;;;;;5052345;28;20084;-80
2024/01/03 03:10:47;;;;;;;0.15;0.15;;;;;;;;;;5022561;28;20057;-79
2024/01/03 03:13:12;;;;;;;2.13;0.37;;;;;;;;;;5047859;28;21608;-80
2024/01/03 03:15:37;;;;;;;0.23;0.23;;;;;;;;;;5057374;28;20799;-81
2024/01/03 03:18:03;;;;;;;0.40;0.20;;;;;;;;;;5040962;28;20780;-79
2024/01/03 03:20:28;;;;;;;0.22;0.22;;;;;;;;;;5060748;28;20269;-79
2024/01/03 03:22:53;;;;;;;0.30;0.20;;;;;;;;;;5047356;28;20502;-79
2024/01/03 03:25:18;;;;;;;0.27;0.27;;;;;;;;;;5062909;28;20761;-80
2024/01/03 03:27:43;;;;;;;0.73;0.33;;;;;;;;;;5053975;28;20764;-79
2024/01/03 03:30:09;;;;;;;0.30;0.27;;;;;;;;;;5064407;28;20781;-80
2024/01/03 03:32:35;;;;;;;0.73;0.30;;;;;;;;;;5046818;28;20805;-79
2024/01/03 03:35:00;;;;;;;0.40;0.40;;;;;;;;;;5046988;28;20032;-80
2024/01/03 03:37:25;;;;;;;0.20;0.20;;;;;;;;;;5061784;28;20262;-80
2024/01/03 03:39:50;;;;;;;0.90;0.40;;;;;;;;;;5045977;28;20262;-80
2024/01/03 03:42:18;;;;;;;0.73;0.20;;;;;;;;;;5060269;28;20254;-80
2024/01/03 03:44:43;;;;;;;0.77;0.28;;;;;;;;;;5062082;28;20063;-80
2024/01/03 03:47:09;;;;;;;0.50;0.13;;;;;;;;;;5058564;28;20017;-80
2024/01/03 03:49:34;;;;;;;0.30;0.30;;;;;;;;;;5045256;28;20159;-79
2024/01/03 03:51:59;;;;;;;0.35;0.30;;;;;;;;;;5061733;28;20020;-79
2024/01/03 03:54:24;;;;;;;1.00;0.20;;;;;;;;;;5059600;28;20098;-80
2024/01/03 03:56:50;;;;;;;0.80;0.20;;;;;;;;;;5044847;28;20270;-79
2024/01/03 03:59:15;;;;;;;0.83;0.30;;;;;;;;;;5058276;28;20273;-79
2024/01/03 04:01:47;;;;;;;0.30;0.10;;;;;;;;;;5057317;28;20281;-79
2024/01/03 04:04:12;;;;;;;0.35;0.30;;;;;;;;;;5061774;28;20111;-79
2024/01/03 04:06:42;;;;;;;0.27;0.20;;;;;;;;;;5060347;28;20056;-79
2024/01/03 04:09:08;;;;;;;0.50;0.17;;;;;;;;;;5059608;28;20309;-79
2024/01/03 04:11:33;;;;;;;0.20;0.20;;;;;;;;;;5054394;28;20055;-79
2024/01/03 04:13:58;;;;;;;0.67;0.27;;;;;;;;;;5058566;28;20100;-79
2024/01/03 04:16:24;;;;;;;0.28;0.20;;;;;;;;;;5059469;28;20339;-79
2024/01/03 04:18:49;;;;;;;0.30;0.27;;;;;;;;;;5048067;28;20388;-79
2024/01/03 04:21:14;;;;;;;0.37;0.30;;;;;;;;;;5062651;28;20261;-80
2024/01/03 04:23:39;;;;;;;0.43;0.20;;;;;;;;;;5045630;28;20629;-80
2024/01/03 04:26:05;;;;;;;0.70;0.20;;;;;;;;;;5042179;28;20022;-79
2024/01/03 04:28:30;;;;;;;0.30;0.30;;;;;;;;;;5057381;28;20304;-80
2024/01/03 04:30:56;;;;;;;1.27;0.60;;;;;;;;;;5043233;28;20044;-80
2024/01/03 04:33:21;;;;;;;0.73;0.30;;;;;;;;;;5046086;28;20151;-80
2024/01/03 04:35:46;;;;;;;0.20;0.20;;;;;;;;;;5033250;28;20498;-80
2024/01/03 04:38:11;;;;;;;0.30;0.30;;;;;;;;;;5052772;28;20028;-80
2024/01/03 04:40:37;;;;;;;0.70;0.40;;;;;;;;;;5049049;28;20271;-79
2024/01/03 04:43:02;;;;;;;0.50;0.22;;;;;;;;;;5050485;28;20260;-80
2024/01/03 04:45:27;;;;;;;2.42;0.40;;;;;;;;;;5047969;28;20025;-79
2024/01/03 04:47:53;;;;;;;0.20;0.20;;;;;;;;;;5043666;28;20198;-78
2024/01/03 04:50:18;;;;;;;1.00;0.30;;;;;;;;;;5060528;28;20036;-79
2024/01/03 04:52:43;;;;;;;0.73;0.20;;;;;;;;;;5059299;28;20385;-79
2024/01/03 04:55:09;;;;;;;1.13;0.22;;;;;;;;;;5061399;28;20273;-81
2024/01/03 04:57:35;;;;;;;0.55;0.30;;;;;;;;;;5055132;28;20079;-80
2024/01/03 05:00:01;;;;;;;1.25;0.30;;;;;;;;;;5062988;28;20083;-80
2024/01/03 05:02:26;;;;;;;0.82;0.38;;;;;;;;;;5046447;28;20070;-80
2024/01/03 05:04:51;;;;;;;1.25;0.40;;;;;;;;;;5065346;28;20029;-80
2024/01/03 05:07:18;;;;;;;0.47;0.27;;;;;;;;;;5060360;28;20598;-80
2024/01/03 05:09:43;;;;;;;2.17;0.43;;;;;;;;;;5063143;28;20520;-80
2024/01/03 05:12:08;;;;;;;0.47;0.30;;;;;;;;;;5060598;28;20080;-80
2024/01/03 05:14:34;;;;;;;0.47;0.20;;;;;;;;;;5045158;28;20041;-80
2024/01/03 05:16:59;;;;;;;0.40;0.30;;;;;;;;;;5047200;28;20021;-79
2024/01/03 05:19:24;;;;;;;0.60;0.10;;;;;;;;;;5058494;28;20322;-81
2024/01/03 05:21:49;;;;;;;0.90;0.30;;;;;;;;;;5050881;28;20068;-80
2024/01/03 05:24:15;;;;;;;1.67;0.22;;;;;;;;;;5042552;28;20266;-80
2024/01/03 05:26:40;;;;;;;1.07;0.40;;;;;;;;;;5056552;28;20028;-80
2024/01/03 05:29:05;;;;;;;0.50;0.20;;;;;;;;;;5055487;28;20292;-80
2024/01/03 05:31:30;;;;;;;0.40;0.30;;;;;;;;;;5041428;28;20081;-79
2024/01/03 05:33:55;;;;;;;0.30;0.30;;;;;;;;;;5057343;28;20262;-80
2024/01/03 05:36:21;;;;;;;0.43;0.17;;;;;;;;;;5031560;28;20258;-81
2024/01/03 05:38:46;;;;;;;0.27;0.27;;;;;;;;;;5033239;28;20315;-80
2024/01/03 05:41:11;;;;;;;0.40;0.20;;;;;;;;;;5054530;28;20297;-81
2024/01/03 05:43:37;;;;;;;0.63;0.20;;;;;;;;;;5070005;28;20331;-80
2024/01/03 05:46:02;;;;;;;0.10;0.10;;;;;;;;;;5072099;28;20063;-80
2024/01/03 05:48:27;;;;;;;0.40;0.20;;;;;;;;;;5043952;28;20400;-81
2024/01/03 05:50:52;;;;;;;0.87;0.33;;;;;;;;;;5057445;28;20036;-81
2024/01/03 05:53:17;;;;;;;0.47;0.47;;;;;;;;;;5048672;28;20270;-80
2024/01/03 05:55:43;;;;;;;0.47;0.27;;;;;;;;;;5052151;28;20270;-81
2024/01/03 05:58:08;;;;;;;0.40;0.40;;;;;;;;;;5051575;28;20252;-80
2024/01/03 06:00:33;;;;;;;0.57;0.40;;;;;;;;;;5052835;28;20338;-80
2024/01/03 06:02:58;;;;;;;0.73;0.37;;;;;;;;;;5041598;28;20275;-82
2024/01/03 06:05:26;;;;;;;0.47;0.35;;;;;;;;;;5054753;28;20285;-79
2024/01/03 06:07:51;;;;;;;1.20;0.40;;;;;;;;;;5055616;28;20036;-80
2024/01/03 06:10:16;;;;;;;1.13;0.30;;;;;;;;;;5059344;28;20041;-81
2024/01/03 06:12:41;;;;;;;0.50;0.30;;;;;;;;;;5035638;28;20369;-82
2024/01/03 06:15:07;;;;;;;1.20;0.37;;;;;;;;;;5044269;28;20024;-81
2024/01/03 06:17:32;;;;;;;2.15;0.50;;;;;;;;;;5053554;28;20321;-80
2024/01/03 06:19:57;;;;;;;0.83;0.40;;;;;;;;;;5055328;28;20152;-79
2024/01/03 06:22:23;;;;;;;0.73;0.33;;;;;;;;;;5054675;28;20286;-80
2024/01/03 06:24:48;;;;;;;0.30;0.20;;;;;;;;;;5054021;28;20281;-81
2024/01/03 06:27:13;;;;;;;0.65;0.35;;;;;;;;;;5035870;28;20278;-81
2024/01/03 06:33:37;;;;;;;0.77;0.35;;;;;;;;;;4981715;28;20727;-81
2024/01/03 06:37:03;;;;;;;0.88;0.30;;;;;;;;;;5047685;28;20045;-81
2024/01/03 06:50:04;;;;;;;1.33;0.50;;;;;;;;;;5006770;28;20562;-80
2024/01/03 06:52:29;;;;;;;1.10;0.40;;;;;;;;;;5021638;28;20120;-80
2024/01/03 06:54:56;;;;;;;1.95;0.50;;;;;;;;;;5021824;28;20115;-82
2024/01/03 06:57:22;;;;;;;2.15;0.63;;;;;;;;;;5021860;28;20033;-81
2024/01/03 06:59:47;;;;;;;1.02;0.50;;;;;;;;;;5031355;28;20037;-82
2024/01/03 07:02:12;;;;;;;0.37;0.23;;;;;;;;;;5029419;28;20085;-81
2024/01/03 07:04:37;;;;;;;2.30;0.50;;;;;;;;;;5041134;28;20305;-81
2024/01/03 07:07:03;;;;;;;1.35;0.47;;;;;;;;;;5038529;28;20278;-79
2024/01/03 07:09:28;;;;;;;1.60;0.60;;;;;;;;;;5026505;28;20029;-81
2024/01/03 07:11:53;;;;;;;0.93;0.50;;;;;;;;;;5034787;28;20075;-81
2024/01/03 07:14:18;;;;;;;1.55;0.32;;;;;;;;;;5033778;28;20455;-82
2024/01/03 07:16:44;;;;;;;1.30;0.50;;;;;;;;;;5028391;28;20037;-81
2024/01/03 07:19:10;;;;;;;0.50;0.40;;;;;;;;;;5032810;28;20273;-79
2024/01/03 07:21:35;;;;;;;0.95;0.38;;;;;;;;;;5031429;28;20025;-80
2024/01/03 07:24:01;;;;;;;1.30;0.38;;;;;;;;;;5029055;28;20219;-80
2024/01/03 07:26:28;;;;;;;0.63;0.30;;;;;;;;;;5033458;28;20041;-80
2024/01/03 07:28:53;;;;;;;1.25;0.30;;;;;;;;;;5036213;28;20293;-80
2024/01/03 07:31:18;;;;;;;0.30;0.30;;;;;;;;;;5030764;28;20029;-80
2024/01/03 07:33:44;;;;;;;1.25;0.40;;;;;;;;;;5034978;28;20053;-81
2024/01/03 07:36:09;;;;;;;0.65;0.38;;;;;;;;;;5032978;28;20025;-81
2024/01/03 07:38:34;;;;;;;2.42;0.60;;;;;;;;;;5032699;28;20022;-79
2024/01/03 07:41:00;;;;;;;3.28;0.57;;;;;;;;;;5036972;28;20030;-79
2024/01/03 07:43:28;;;;;;;1.00;0.60;;;;;;;;;;5032860;28;20057;-80
2024/01/03 07:45:54;;;;;;;2.88;0.60;;;;;;;;;;5031171;28;20485;-80
2024/01/03 07:48:22;;;;;;;3.22;0.50;;;;;;;;;;5035725;28;20026;-80
2024/01/03 07:50:47;;;;;;;1.33;0.60;;;;;;;;;;5036964;28;20025;-80
2024/01/03 07:53:12;;;;;;;1.65;0.57;;;;;;;;;;5044694;28;20391;-81
2024/01/03 07:55:37;;;;;;;1.90;0.50;;;;;;;;;;5038216;28;20052;-81
2024/01/03 07:58:03;;;;;;;3.70;0.60;;;;;;;;;;5039672;28;20412;-79
2024/01/03 08:01:15;;;;;;;1.80;0.60;;;;;;;;;;5143258;22;20324;-81
2024/01/03 08:04:00;;;;;;;0.95;0.60;;;;;;;;;;5035771;28;20048;-82
2024/01/03 08:06:33;;;;;;;2.08;0.65;;;;;;;;;;5074350;28;20027;-80
2024/01/03 08:09:31;;;;;;;3.67;0.70;;;;;;;;;;5080324;28;20029;-81
2024/01/03 08:12:37;;;;;;;0.95;0.50;;;;;;;;;;5072518;28;20025;-78
2024/01/03 08:15:05;;;;;;;1.88;0.57;;;;;;;;;;5071222;28;20028;-79
2024/01/03 08:18:07;;;;;;;1.95;0.70;;;;;;;;;;5072405;28;20033;-80
2024/01/03 08:27:39;;;;;;;;;;;;;;;;;;;;;
2024/01/03 08:59:09;;;;;;;2.15;0.70;;;;;;;;;;772341;22;20462;-79
2024/01/03 09:02:01;;;;;;;3.42;0.80;;;;;;;;;;5099892;28;20036;-79
2024/01/03 09:14:02;;;;;;;;;;;;;;;;;;;;;
2024/01/03 09:17:00;;;;;;;1.80;0.70;;;;;;;;;;5101423;28;20115;-81
2024/01/03 09:29:28;;;;;;;2.72;0.55;;;;;;;;;;5092136;28;20438;-78
2024/01/03 09:32:17;;;;;;;;;;;;;;;;;;5086555;28;20031;-79
2024/01/03 09:35:31;;;;;;;2.97;0.80;;;;;;;;;;5103644;28;19916;-78
2024/01/03 09:39:04;;;;;;;;;;;;;;;;;;;;;
2024/01/03 09:42:00;;;;;;;3.03;0.75;;;;;;;;;;5087781;28;20102;-81
2024/01/03 10:00:52;;;;;;;2.90;0.45;;;;;;;;;;5380032;22;20065;-80
2024/01/03 10:03:18;;;;;;;3.13;0.60;;;;;;;;;;5036819;28;20021;-80
2024/01/03 10:05:43;;;;;;;2.70;0.60;;;;;;;;;;5024617;28;20033;-79
2024/01/03 10:08:17;;;;;;;7.40;0.80;;;;;;;;;;5035965;28;20045;-79
2024/01/03 10:10:45;;;;;;;3.85;0.70;;;;;;;;;;5055733;28;20028;-81
2024/01/03 10:13:23;;;;;;;2.80;0.70;;;;;;;;;;5035511;28;20399;-79
2024/01/03 10:15:49;;;;;;;5.15;0.75;;;;;;;;;;5011021;28;20041;-79
2024/01/03 10:18:15;;;;;;;1.60;0.57;;;;;;;;;;5014895;28;20522;-79
2024/01/03 10:20:41;;;;;;;2.97;0.73;;;;;;;;;;5033602;28;20068;-80
2024/01/03 10:23:12;;;;;;;3.08;0.70;;;;;;;;;;5015734;28;20017;-79
2024/01/03 10:25:39;;;;;;;1.38;0.60;;;;;;;;;;5033654;28;20022;-81
2024/01/03 10:28:08;;;;;;;3.53;0.50;;;;;;;;;;5029580;28;20886;-79
2024/01/03 10:30:34;;;;;;;3.28;0.60;;;;;;;;;;5031784;28;20018;-78
2024/01/03 10:33:05;;;;;;;2.88;0.80;;;;;;;;;;5032959;28;20048;-79
2024/01/03 10:35:35;;;;;;;2.75;0.70;;;;;;;;;;5029808;28;20021;-78
2024/01/03 10:38:01;;;;;;;4.35;0.80;;;;;;;;;;5032787;28;20080;-79
2024/01/03 10:40:28;;;;;;;2.47;0.60;;;;;;;;;;5015299;28;20040;-80
2024/01/03 10:42:54;;;;;;;1.02;0.47;;;;;;;;;;5015502;28;20030;-79
2024/01/03 10:45:20;;;;;;;2.20;0.68;;;;;;;;;;5032725;28;20022;-80
2024/01/03 10:47:45;;;;;;;3.90;0.80;;;;;;;;;;5035476;28;20116;-79
2024/01/03 10:50:11;;;;;;;1.88;0.70;;;;;;;;;;5033980;28;20021;-79
2024/01/03 10:52:37;;;;;;;3.70;0.77;;;;;;;;;;5034961;28;20041;-79
2024/01/03 10:55:05;;;;;;;3.42;0.90;;;;;;;;;;5034903;28;20029;-78
2024/01/03 10:57:34;;;;;;;6.05;0.95;;;;;;;;;;5017689;28;20021;-78
2024/01/03 11:00:19;;;;;;;3.90;0.70;;;;;;;;;;5035500;28;20040;-80
2024/01/03 11:02:53;;;;;;;4.53;0.88;;;;;;;;;;5018329;28;20076;-79
2024/01/03 11:05:23;;;;;;;;;;;;;;;;;;5036919;28;20043;-80
2024/01/03 11:07:54;;;;;;;3.28;0.80;;;;;;;;;;5028894;28;20364;-74
2024/01/03 11:10:54;;;;;;;3.80;0.68;;;;;;;;;;5039147;28;20040;-74
2024/01/03 11:13:32;;;;;;;5.03;0.88;;;;;;;;;;5017749;28;20030;-74
2024/01/03 11:15:59;;;;;;;2.47;0.77;;;;;;;;;;5025758;28;20029;-75
2024/01/03 11:18:39;;;;;;;3.42;0.70;;;;;;;;;;5013561;28;20029;-76
2024/01/03 11:21:31;;;;;;;4.63;0.80;;;;;;;;;;5044595;28;20447;-76
2024/01/03 11:23:57;;;;;;;2.42;0.63;;;;;;;;;;5014290;28;20036;-74
2024/01/03 11:26:54;;;;;;;1.40;0.50;;;;;;;;;;5032365;28;20037;-74
2024/01/03 11:29:41;;;;;;;2.55;0.63;;;;;;;;;;5027152;28;20029;-74
2024/01/03 11:32:13;;;;;;;3.80;0.95;;;;;;;;;;5013361;28;20021;-74
2024/01/03 11:34:45;;;;;;;1.50;0.65;;;;;;;;;;5030188;28;20079;-76
2024/01/03 11:37:10;;;;;;;3.83;0.90;;;;;;;;;;5030703;28;20686;-77
2024/01/03 11:39:41;;;;;;;4.63;1.03;;;;;;;;;;5016825;28;20034;-77
2024/01/03 11:42:06;;;;;;;2.80;0.70;;;;;;;;;;5022621;28;20029;-78
2024/01/03 11:44:32;;;;;;;1.13;0.65;;;;;;;;;;5033314;28;20045;-77
2024/01/03 11:47:02;;;;;;;3.97;0.80;;;;;;;;;;5041286;28;20102;-77
2024/01/03 11:49:27;;;;;;;3.95;0.88;;;;;;;;;;5013448;28;20686;-77
2024/01/03 11:51:54;;;;;;;2.70;1.00;;;;;;;;;;5037424;28;20078;-76
2024/01/03 11:54:19;;;;;;;2.28;0.70;;;;;;;;;;5037506;28;20746;-77
2024/01/03 11:56:45;;;;;;;2.57;0.50;;;;;;;;;;5039901;28;20044;-76
2024/01/03 11:59:10;;;;;;;1.48;0.57;;;;;;;;;;5018523;28;20265;-76
2024/01/03 12:01:38;;;;;;;2.03;0.50;;;;;;;;;;5018771;28;20030;-77
2024/01/03 12:04:10;;;;;;;1.20;0.50;;;;;;;;;;5036943;28;20780;-76
2024/01/03 12:06:36;;;;;;;1.92;0.57;;;;;;;;;;5035572;28;20030;-77
2024/01/03 12:09:02;;;;;;;1.52;0.63;;;;;;;;;;5035628;28;20031;-76
2024/01/03 12:11:28;;;;;;;1.25;0.40;;;;;;;;;;5035336;28;20120;-77
2024/01/03 12:13:56;;;;;;;0.90;0.40;;;;;;;;;;5036010;28;20071;-77
2024/01/03 12:16:22;;;;;;;1.42;0.35;;;;;;;;;;5031618;28;20407;-76
2024/01/03 12:18:51;;;;;;;0.88;0.57;;;;;;;;;;5018357;28;20026;-76
2024/01/03 12:21:17;;;;;;;0.85;0.30;;;;;;;;;;5018246;28;20139;-75
2024/01/03 12:23:56;;;;;;;0.70;0.65;;;;;;;;;;5034360;28;20668;-75
2024/01/03 12:26:25;;;;;;;0.82;0.55;;;;;;;;;;5034762;28;20423;-76
2024/01/03 12:28:54;;;;;;;2.10;0.40;;;;;;;;;;5035949;28;20025;-75
2024/01/03 12:31:22;;;;;;;0.82;0.52;;;;;;;;;;5036424;28;20468;-76
2024/01/03 12:33:48;;;;;;;2.92;0.40;;;;;;;;;;5018464;28;20044;-76
2024/01/03 12:36:16;;;;;;;0.50;0.30;;;;;;;;;;5036494;28;20476;-77
2024/01/03 12:38:41;;;;;;;1.23;0.35;;;;;;;;;;5035934;28;20686;-76
2024/01/03 12:41:06;;;;;;;0.60;0.40;;;;;;;;;;5019537;28;20025;-75
2024/01/03 12:43:35;;;;;;;1.50;0.50;;;;;;;;;;5018309;28;20273;-76
2024/01/03 12:46:00;;;;;;;1.63;0.57;;;;;;;;;;5017500;28;20026;-76
2024/01/03 12:48:26;;;;;;;1.98;0.60;;;;;;;;;;5017989;28;20116;-75
2024/01/03 12:50:52;;;;;;;3.00;0.60;;;;;;;;;;5016143;28;20476;-75
2024/01/03 12:53:18;;;;;;;1.02;0.70;;;;;;;;;;5017736;28;20029;-76
2024/01/03 12:55:43;;;;;;;0.60;0.43;;;;;;;;;;5035105;28;20064;-76
2024/01/03 12:58:09;;;;;;;1.37;0.40;;;;;;;;;;5035227;28;20432;-77
2024/01/03 13:00:34;;;;;;;2.50;0.45;;;;;;;;;;5033193;28;20716;-76
2024/01/03 13:02:59;;;;;;;2.33;0.57;;;;;;;;;;5017435;28;20405;-76
2024/01/03 13:05:24;;;;;;;3.25;0.60;;;;;;;;;;5035982;28;20664;-76
2024/01/03 13:07:53;;;;;;;0.60;0.50;;;;;;;;;;5037922;28;20027;-76
2024/01/03 13:10:21;;;;;;;5.38;0.73;;;;;;;;;;5034362;28;20708;-77
2024/01/03 13:12:47;;;;;;;2.10;0.57;;;;;;;;;;5034914;28;20037;-75
2024/01/03 13:15:12;;;;;;;1.33;0.63;;;;;;;;;;5016877;28;20021;-76
2024/01/03 13:17:39;;;;;;;3.47;0.60;;;;;;;;;;5037288;28;20040;-76
2024/01/03 13:20:05;;;;;;;2.53;0.65;;;;;;;;;;5035455;28;20417;-76
2024/01/03 13:22:30;;;;;;;2.15;0.50;;;;;;;;;;5036834;28;20060;-76
2024/01/03 13:24:55;;;;;;;1.33;0.50;;;;;;;;;;5035147;28;20034;-74
2024/01/03 13:27:20;;;;;;;1.45;0.50;;;;;;;;;;5033148;28;20271;-75
2024/01/03 13:29:47;;;;;;;1.65;0.70;;;;;;;;;;5036993;28;20033;-77
2024/01/03 13:32:12;;;;;;;0.65;0.38;;;;;;;;;;5038525;28;20020;-77
2024/01/03 13:34:37;;;;;;;1.45;0.50;;;;;;;;;;5037887;28;20040;-76
2024/01/03 13:37:03;;;;;;;1.27;0.50;;;;;;;;;;5033662;28;21819;-75
2024/01/03 13:39:28;;;;;;;1.00;0.30;;;;;;;;;;5023687;28;20762;-76
2024/01/03 13:41:54;;;;;;;2.40;0.70;;;;;;;;;;5026933;28;20029;-77
2024/01/03 13:44:19;;;;;;;2.38;0.80;;;;;;;;;;5005517;28;20462;-76
2024/01/03 13:46:44;;;;;;;1.52;0.50;;;;;;;;;;5015863;28;20025;-75
2024/01/03 13:49:10;;;;;;;1.27;0.47;;;;;;;;;;5032571;28;20036;-76
2024/01/03 13:51:35;;;;;;;1.95;0.73;;;;;;;;;;5015541;28;20271;-76
2024/01/03 13:54:00;;;;;;;0.55;0.28;;;;;;;;;;5018579;28;20104;-76
2024/01/03 13:56:25;;;;;;;0.50;0.30;;;;;;;;;;5033366;28;20104;-75
2024/01/03 13:59:03;;;;;;;1.63;0.50;;;;;;;;;;5032421;28;20022;-76
2024/01/03 14:01:28;;;;;;;0.45;0.38;;;;;;;;;;5029436;28;20270;-77
2024/01/03 14:03:53;;;;;;;1.33;0.50;;;;;;;;;;5030828;28;20036;-76
2024/01/03 14:06:18;;;;;;;0.93;0.40;;;;;;;;;;5034502;28;20033;-76
2024/01/03 14:08:44;;;;;;;1.83;0.60;;;;;;;;;;5038182;28;20033;-76
2024/01/03 14:11:09;;;;;;;0.63;0.45;;;;;;;;;;5033284;28;20022;-76
2024/01/03 14:13:34;;;;;;;1.80;0.57;;;;;;;;;;5031980;28;20103;-76
2024/01/03 14:16:00;;;;;;;1.45;0.60;;;;;;;;;;5031391;28;20018;-76
2024/01/03 14:18:26;;;;;;;0.38;0.20;;;;;;;;;;5031414;28;20040;-76
2024/01/03 14:20:52;;;;;;;4.68;0.70;;;;;;;;;;5025017;28;20060;-73
2024/01/03 14:23:19;;;;;;;1.05;0.55;;;;;;;;;;5033423;28;20029;-75
2024/01/03 14:25:45;;;;;;;0.55;0.28;;;;;;;;;;5011619;28;20508;-76
2024/01/03 14:28:10;;;;;;;1.45;0.50;;;;;;;;;;5031654;28;20125;-76
2024/01/03 14:30:36;;;;;;;0.97;0.50;;;;;;;;;;5013061;28;20099;-76
2024/01/03 14:33:01;;;;;;;1.52;0.50;;;;;;;;;;5035212;28;20677;-74
2024/01/03 14:35:26;;;;;;;0.90;0.50;;;;;;;;;;5037343;28;20037;-73
2024/01/03 14:37:52;;;;;;;0.60;0.50;;;;;;;;;;5034417;28;20112;-83
2024/01/03 14:40:19;;;;;;;0.55;0.40;;;;;;;;;;5015912;28;20028;-75
2024/01/03 14:42:48;;;;;;;1.85;0.55;;;;;;;;;;5036642;28;20025;-77
2024/01/03 14:45:17;;;;;;;2.00;0.63;;;;;;;;;;5014228;28;20029;-73
2024/01/03 14:47:44;;;;;;;1.10;0.68;;;;;;;;;;5030357;28;20118;-74
2024/01/03 14:50:14;;;;;;;1.90;0.77;;;;;;;;;;5029185;28;20029;-74
2024/01/03 14:52:42;;;;;;;1.70;0.70;;;;;;;;;;5033720;28;20048;-75
2024/01/03 14:55:08;;;;;;;5.53;1.67;;;;;;;;;;5014353;28;20038;-75
2024/01/03 14:57:35;;;;;;;2.53;0.80;;;;;;;;;;5019128;28;20261;-75
2024/01/03 15:00:01;;;;;;;4.57;0.77;;;;;;;;;;5044246;28;20049;-75
2024/01/03 15:02:26;;;;;;;1.38;0.70;;;;;;;;;;5042392;28;20024;-78
2024/01/03 15:04:52;;;;;;;1.70;0.50;;;;;;;;;;5033709;28;20045;-74
2024/01/03 15:07:17;;;;;;;1.55;0.68;;;;;;;;;;5010409;28;20309;-75
2024/01/03 15:09:43;;;;;;;2.20;0.50;;;;;;;;;;5030694;28;20496;-75
2024/01/03 15:12:08;;;;;;;0.85;0.60;;;;;;;;;;5036431;28;20025;-74
2024/01/03 15:14:35;;;;;;;1.40;0.50;;;;;;;;;;5029834;28;20064;-75
2024/01/03 15:17:00;;;;;;;0.68;0.40;;;;;;;;;;5008702;28;20312;-74
2024/01/03 15:19:26;;;;;;;2.00;0.70;;;;;;;;;;5028912;28;20017;-74
2024/01/03 15:22:14;;;;;;;1.00;0.60;;;;;;;;;;5027595;28;20038;-75
2024/01/03 15:24:40;;;;;;;1.90;0.70;;;;;;;;;;5015816;28;20791;-76
2024/01/03 15:27:05;;;;;;;8.30;2.20;;;;;;;;;;5036433;28;20037;-75
2024/01/03 15:29:31;;;;;;;2.78;0.68;;;;;;;;;;5024037;28;20037;-75
2024/01/03 15:31:57;;;;;;;2.50;0.93;;;;;;;;;;5037516;28;20064;-75
2024/01/03 15:34:26;;;;;;;2.95;0.80;;;;;;;;;;5038131;28;20029;-76
2024/01/03 15:36:55;;;;;;;1.00;0.68;;;;;;;;;;5033147;28;20029;-77
2024/01/03 15:39:24;;;;;;;2.22;0.75;;;;;;;;;;5031357;28;20045;-79
2024/01/03 15:41:49;;;;;;;1.85;0.90;;;;;;;;;;5020879;28;20044;-85
2024/01/03 15:44:16;;;;;;;4.80;0.90;;;;;;;;;;5028623;28;20029;-78
2024/01/03 15:46:41;;;;;;;2.05;0.70;;;;;;;;;;5025852;28;20274;-74
2024/01/03 15:49:09;;;;;;;1.50;0.47;;;;;;;;;;5035386;28;20691;-77
2024/01/03 15:51:34;;;;;;;2.55;0.77;;;;;;;;;;5016133;28;20034;-76
2024/01/03 15:54:00;;;;;;;2.58;0.73;;;;;;;;;;5039234;28;20028;-76
2024/01/03 15:56:25;;;;;;;2.80;0.80;;;;;;;;;;5038774;28;20037;-76
2024/01/03 15:58:51;;;;;;;1.52;0.88;;;;;;;;;;5054834;28;20020;-76
2024/01/03 16:01:17;;;;;;;1.45;0.65;;;;;;;;;;5014544;28;20551;-77
2024/01/03 16:03:46;;;;;;;2.40;0.73;;;;;;;;;;5040768;28;20025;-83
2024/01/03 16:06:12;;;;;;;2.22;0.70;;;;;;;;;;5048115;28;20025;-80
2024/01/03 16:08:38;;;;;;;2.40;0.80;;;;;;;;;;5032744;28;20492;-80
2024/01/03 16:11:03;;;;;;;1.27;0.70;;;;;;;;;;5039803;28;20029;-79
2024/01/03 16:13:28;;;;;;;3.22;0.68;;;;;;;;;;5036014;28;20037;-81
2024/01/03 16:15:53;;;;;;;1.47;0.90;;;;;;;;;;5031398;28;20040;-79
2024/01/03 16:18:19;;;;;;;2.50;0.87;;;;;;;;;;5033225;28;20283;-79